Terminal Aerodrome Forecast
Issued by NWS Tampa Bay Area, FL

Home | Current Version | Previous Version | Text Only | Print | Product List | Glossary On
Versions: 1 2 3 4 5 6 7 8 9 10 11 12 13 14 15 16 17 18 19 20 21 22 23 24 25 26 27
000
FTUS42 KTBW 232056 AAA
TAFTPA
TAF AMD
KTPA 232056Z 2321/2418 26007KT P6SM VCTS SCT030CB SCT080 BKN250
     FM240200 VRB03KT P6SM SCT030 BKN100
     FM240600 00000KT P6SM FEW100 SCT250
     FM241600 22006KT P6SM VCTS SCT030CB SCT120 SCT250=

USA.gov is the U.S. government's official web portal to all federal, state and local government web resources and services.